Time;durP1;ratioP1;P1;durP2;ratioP2;P2;SDS_P1;SDS_P2;PMS_P1;PMS_P2;Temp;Humidity;BMP_temperature;BMP_pressure;BME280_temperature;BME280_humidity;BME280_pressure;Samples;Min_cycle;Max_cycle;Signal;HPM_P1;HPM_P2
2023/03/20 00:01:20;;;;;;;18.48;12.25;;;;;;;7.77;100.00;101803.94;6297831;22;20027;-88
2023/03/20 00:03:46;;;;;;;16.85;11.77;;;;;;;7.53;100.00;101772.75;6296366;22;20014;-89
2023/03/20 00:06:23;;;;;;;21.83;12.38;;;;;;;7.62;100.00;101791.94;6297468;22;20004;-89
2023/03/20 00:08:51;;;;;;;15.75;11.80;;;;;;;7.60;100.00;101784.91;6294122;22;19991;-88
2023/03/20 00:11:27;;;;;;;18.77;12.98;;;;;;;7.76;100.00;101812.78;6298230;22;19995;-89
2023/03/20 00:13:58;;;;;;;14.40;10.95;;;;;;;7.56;100.00;101775.28;6296606;22;20029;-90
2023/03/20 00:16:28;;;;;;;15.52;11.10;;;;;;;7.54;100.00;101775.34;6295896;22;20012;-88
2023/03/20 00:18:55;;;;;;;16.67;11.05;;;;;;;7.42;100.00;101757.94;6298024;22;19991;-89
2023/03/20 00:21:21;;;;;;;15.93;10.88;;;;;;;7.60;100.00;101792.84;6299470;22;20006;-89
2023/03/20 00:23:46;;;;;;;15.80;11.40;;;;;;;7.67;100.00;101805.06;6300262;22;20000;-88
2023/03/20 00:26:17;;;;;;;17.92;11.27;;;;;;;7.55;100.00;101785.03;6300636;22;19987;-87
2023/03/20 00:28:47;;;;;;;14.27;10.73;;;;;;;7.41;100.00;101761.50;6299151;22;19992;-89
2023/03/20 00:31:30;;;;;;;15.10;11.00;;;;;;;7.58;100.00;101784.09;6300803;22;19996;-87
2023/03/20 00:33:59;;;;;;;14.60;10.95;;;;;;;7.41;100.00;101756.22;6301800;22;20008;-89
2023/03/20 00:36:25;;;;;;;16.17;11.18;;;;;;;7.37;100.00;101740.44;6293971;22;20195;-89
2023/03/20 00:38:51;;;;;;;13.98;11.18;;;;;;;7.45;100.00;101752.59;6276366;22;19999;-90
2023/03/20 00:41:20;;;;;;;14.60;11.32;;;;;;;7.23;100.00;101727.47;6278549;22;20000;-89
2023/03/20 00:43:48;;;;;;;17.95;11.70;;;;;;;7.20;100.00;101725.78;6275124;22;20008;-90
2023/03/20 00:46:14;;;;;;;17.70;11.90;;;;;;;7.06;100.00;101719.06;6274637;22;20439;-89
2023/03/20 00:48:42;;;;;;;15.80;12.40;;;;;;;7.24;100.00;101774.25;6274201;22;20027;-89
2023/03/20 00:51:08;;;;;;;17.35;12.70;;;;;;;7.09;100.00;101756.06;6273863;22;20000;-89
2023/03/20 00:53:33;;;;;;;15.43;11.55;;;;;;;6.88;100.00;101723.84;6271417;22;20015;-89
2023/03/20 00:55:59;;;;;;;18.27;12.63;;;;;;;6.81;100.00;101730.16;6272747;22;20007;-89
2023/03/20 00:58:25;;;;;;;16.63;11.68;;;;;;;6.72;100.00;101727.72;6271550;22;20571;-88
2023/03/20 01:00:51;;;;;;;15.63;11.07;;;;;;;6.65;100.00;101723.47;6271921;22;20029;-88
2023/03/20 01:03:19;;;;;;;16.48;11.88;;;;;;;6.49;100.00;101715.84;6270324;22;20004;-89
2023/03/20 01:05:45;;;;;;;14.45;11.80;;;;;;;6.48;100.00;101737.91;6270526;22;20029;-89
2023/03/20 01:08:16;;;;;;;20.42;12.93;;;;;;;6.57;100.00;101760.66;6271076;22;20014;-89
2023/03/20 01:10:44;;;;;;;23.08;14.00;;;;;;;6.35;100.00;101733.75;6270005;22;20004;-89
2023/03/20 01:13:17;;;;;;;19.65;13.50;;;;;;;6.58;100.00;101795.91;6271793;22;20095;-89
2023/03/20 01:15:43;;;;;;;20.13;13.27;;;;;;;6.24;100.00;101746.31;6270843;22;20007;-88
2023/03/20 01:18:12;;;;;;;17.48;12.25;;;;;;;6.46;100.00;101795.25;6255409;22;20370;-88
2023/03/20 01:20:38;;;;;;;19.02;13.48;;;;;;;6.46;100.00;101816.41;6306084;22;20011;-88
2023/03/20 01:23:03;;;;;;;16.15;12.50;;;;;;;6.42;100.00;101800.63;6307651;22;20451;-88
2023/03/20 01:25:29;;;;;;;22.23;13.40;;;;;;;6.34;100.00;101794.59;6304751;22;20011;-88
2023/03/20 01:27:56;;;;;;;17.80;12.80;;;;;;;6.36;100.00;101783.09;6306870;22;20061;-86
2023/03/20 01:30:25;;;;;;;18.10;13.10;;;;;;;6.30;100.00;101771.75;6307023;22;20003;-89
2023/03/20 01:32:51;;;;;;;20.63;13.65;;;;;;;6.31;100.00;101784.97;6305193;22;20023;-89
2023/03/20 01:35:20;;;;;;;19.60;13.35;;;;;;;6.25;100.00;101782.41;6305776;22;20003;-88
2023/03/20 01:37:47;;;;;;;17.63;13.15;;;;;;;6.25;100.00;101798.28;6304660;22;20003;-88
2023/03/20 01:40:32;;;;;;;21.50;14.73;;;;;;;6.26;100.00;101792.09;6305431;22;20003;-88
2023/03/20 01:42:58;;;;;;;20.25;14.18;;;;;;;6.23;100.00;101793.03;6305592;22;19999;-88
2023/03/20 01:45:30;;;;;;;21.58;14.90;;;;;;;6.21;100.00;101793.94;6305197;22;20014;-88
2023/03/20 01:47:57;;;;;;;22.08;15.43;;;;;;;6.19;100.00;101786.06;6304367;22;20069;-88
2023/03/20 01:50:30;;;;;;;24.98;16.50;;;;;;;6.16;100.00;101796.66;6305495;22;20019;-87
2023/03/20 01:53:04;;;;;;;24.95;16.67;;;;;;;6.13;100.00;101795.84;6304647;22;19999;-88
2023/03/20 01:55:30;;;;;;;25.75;16.02;;;;;;;6.11;100.00;101795.03;6302185;22;20061;-88
2023/03/20 01:57:57;;;;;;;23.85;16.77;;;;;;;6.06;100.00;101779.25;6305911;22;20003;-89
2023/03/20 02:00:22;;;;;;;23.75;16.25;;;;;;;6.10;100.00;101774.75;6304195;22;20015;-88
2023/03/20 02:02:48;;;;;;;26.67;16.73;;;;;;;6.07;100.00;101782.75;6304320;22;20006;-88
2023/03/20 02:05:17;;;;;;;28.50;17.88;;;;;;;6.05;100.00;101777.47;6305202;22;20416;-88
2023/03/20 02:07:48;;;;;;;25.92;17.92;;;;;;;6.12;100.00;101787.06;6304545;22;20067;-89
2023/03/20 02:10:15;;;;;;;24.95;18.58;;;;;;;6.02;100.00;101777.56;6304417;22;20439;-89
2023/03/20 02:12:42;;;;;;;29.63;18.52;;;;;;;5.96;100.00;101762.66;6305754;22;20010;-88
2023/03/20 02:15:10;;;;;;;24.80;17.67;;;;;;;5.98;100.00;101776.72;6305180;22;20027;-88
2023/03/20 02:17:35;;;;;;;26.05;18.23;;;;;;;5.96;100.00;101773.22;6300402;22;20448;-89
2023/03/20 02:20:09;;;;;;;28.70;18.90;;;;;;;5.97;100.00;101782.88;6303023;22;20038;-89
2023/03/20 02:23:18;;;;;;;28.05;18.10;;;;;;;5.90;100.00;101799.72;6302914;22;20000;-89
2023/03/20 02:25:59;;;;;;;27.27;17.60;;;;;;;5.87;100.00;101802.41;6301607;22;20010;-90
2023/03/20 02:28:43;;;;;;;26.25;18.15;;;;;;;5.84;100.00;101794.53;6302537;22;20033;-89
2023/03/20 02:31:24;;;;;;;;;;;;;;;5.86;100.00;101808.59;6303552;22;20147;-89
2023/03/20 02:33:52;;;;;;;29.65;18.83;;;;;;;5.80;100.00;101813.09;6301634;22;20320;-88
2023/03/20 02:36:48;;;;;;;27.30;19.20;;;;;;;5.75;100.00;101821.09;6300878;22;20098;-88
2023/03/20 02:39:19;;;;;;;27.23;18.85;;;;;;;5.70;100.00;101807.97;6301025;22;20691;-89
2023/03/20 02:42:04;;;;;;;28.73;19.33;;;;;;;5.71;100.00;101808.81;6300890;22;20011;-90
2023/03/20 02:44:45;;;;;;;33.25;20.23;;;;;;;5.71;100.00;101803.53;6300468;22;20456;-90
2023/03/20 02:47:19;;;;;;;28.95;18.80;;;;;;;5.68;100.00;101791.25;6299310;22;19999;-90
2023/03/20 02:49:49;;;;;;;27.33;17.73;;;;;;;5.71;100.00;101785.06;6299814;22;20121;-90
2023/03/20 02:52:48;;;;;;;27.02;18.50;;;;;;;5.68;100.00;101785.09;6301004;22;20006;-89
2023/03/20 02:55:40;;;;;;;28.10;19.33;;;;;;;5.75;100.00;101778.81;6254550;22;20006;-89
2023/03/20 02:58:23;;;;;;;28.15;18.83;;;;;;;5.74;100.00;101783.25;6291603;22;20011;-89
2023/03/20 03:01:10;;;;;;;28.83;19.98;;;;;;;5.69;100.00;101779.81;6300472;22;20006;-91
2023/03/20 03:03:45;;;;;;;25.50;17.25;;;;;;;5.66;100.00;101778.97;6300462;22;20007;-89
2023/03/20 03:06:19;;;;;;;29.05;18.33;;;;;;;5.66;100.00;101778.97;6300454;22;20403;-88
2023/03/20 03:08:51;;;;;;;26.27;17.73;;;;;;;5.58;100.00;101772.94;6301718;22;20436;-89
2023/03/20 03:11:17;;;;;;;25.35;17.95;;;;;;;5.55;100.00;101776.50;6326817;22;20051;-90
2023/03/20 03:13:53;;;;;;;24.27;17.48;;;;;;;5.54;100.00;101779.16;6326935;22;20003;-89
2023/03/20 03:16:25;;;;;;;22.65;17.10;;;;;;;5.48;100.00;101773.09;6325637;22;19995;-88
2023/03/20 03:19:05;;;;;;;26.95;17.63;;;;;;;5.40;100.00;101768.81;6328374;22;20010;-88
2023/03/20 03:21:33;;;;;;;25.67;17.65;;;;;;;5.39;100.00;101764.41;6327811;22;20015;-90
2023/03/20 03:23:59;;;;;;;28.33;17.73;;;;;;;5.42;100.00;101759.09;6329147;22;20018;-90
2023/03/20 03:26:30;;;;;;;28.85;18.48;;;;;;;5.40;100.00;101755.63;6317696;22;20011;-88
2023/03/20 03:29:00;;;;;;;24.48;17.50;;;;;;;5.40;100.00;101743.28;6304314;22;20372;-89
2023/03/20 03:31:26;;;;;;;26.95;17.65;;;;;;;5.43;100.00;101734.41;6304450;22;20003;-89
2023/03/20 03:33:55;;;;;;;24.75;17.50;;;;;;;5.40;100.00;101743.28;6306709;22;20003;-89
2023/03/20 03:36:42;;;;;;;24.05;16.55;;;;;;;5.42;100.00;101740.59;6310796;22;20003;-89
2023/03/20 03:39:19;;;;;;;26.77;17.17;;;;;;;5.44;100.00;101736.19;6308849;22;20041;-89
2023/03/20 03:42:13;;;;;;;24.40;16.42;;;;;;;5.41;100.00;101747.66;6328426;22;20001;-88
2023/03/20 03:44:58;;;;;;;25.48;17.67;;;;;;;5.43;100.00;101747.63;6330844;22;20125;-88
2023/03/20 03:47:31;;;;;;;25.85;16.35;;;;;;;5.38;100.00;101736.28;6328670;22;20018;-89
2023/03/20 03:50:07;;;;;;;26.73;17.87;;;;;;;5.42;100.00;101753.81;6327606;22;20014;-89
2023/03/20 03:52:34;;;;;;;25.23;16.55;;;;;;;5.38;100.00;101736.28;6310863;22;20367;-88
2023/03/20 03:55:04;;;;;;;22.58;16.10;;;;;;;5.45;100.00;101735.28;6306556;22;20369;-89
2023/03/20 03:57:41;;;;;;;25.08;17.60;;;;;;;5.39;100.00;101731.00;6305666;22;20007;-88
2023/03/20 04:00:10;;;;;;;25.50;17.27;;;;;;;5.38;100.00;101726.56;6305598;22;20007;-89
2023/03/20 04:02:36;;;;;;;24.63;16.88;;;;;;;5.38;100.00;101723.94;6306049;22;20003;-89
2023/03/20 04:05:05;;;;;;;23.85;15.80;;;;;;;5.37;100.00;101727.47;6305159;22;20033;-89
2023/03/20 04:07:31;;;;;;;22.45;16.17;;;;;;;5.34;100.00;101721.38;6303515;22;20011;-89
2023/03/20 04:09:56;;;;;;;23.33;15.98;;;;;;;5.31;100.00;101721.41;6302580;22;19999;-89
2023/03/20 04:12:37;;;;;;;24.38;16.27;;;;;;;5.32;100.00;101731.97;6301278;22;20333;-89
2023/03/20 04:15:03;;;;;;;25.30;16.38;;;;;;;5.28;100.00;101727.63;6302805;22;20420;-90
2023/03/20 04:17:29;;;;;;;23.98;16.25;;;;;;;5.23;100.00;101726.81;6301107;22;20010;-90
2023/03/20 04:19:54;;;;;;;26.30;16.05;;;;;;;5.29;100.00;101723.22;6302193;22;20035;-90
2023/03/20 04:22:19;;;;;;;21.55;15.00;;;;;;;5.21;100.00;101715.41;6302629;22;20094;-89
2023/03/20 04:24:45;;;;;;;23.42;15.88;;;;;;;5.22;100.00;101722.41;6300052;22;20014;-90
2023/03/20 04:27:10;;;;;;;21.58;15.40;;;;;;;5.20;100.00;101719.81;6299849;22;20007;-90
2023/03/20 04:29:36;;;;;;;21.08;14.90;;;;;;;5.14;100.00;101712.00;6300296;22;20014;-90
2023/03/20 04:32:01;;;;;;;20.90;14.98;;;;;;;5.15;100.00;101713.75;6300795;22;20037;-90
2023/03/20 04:34:28;;;;;;;21.75;15.18;;;;;;;5.12;100.00;101713.78;6299281;22;20442;-89
2023/03/20 04:36:53;;;;;;;23.00;15.02;;;;;;;5.13;100.00;101717.28;6296827;22;20450;-90
2023/03/20 04:39:19;;;;;;;22.63;14.45;;;;;;;5.13;100.00;101719.91;6299068;22;19999;-89
2023/03/20 04:41:45;;;;;;;20.33;14.52;;;;;;;5.07;100.00;101715.63;6300297;22;20079;-90
2023/03/20 04:44:10;;;;;;;20.98;15.43;;;;;;;5.05;100.00;101719.16;6301751;22;20458;-89
2023/03/20 04:46:35;;;;;;;21.10;14.32;;;;;;;5.03;100.00;101718.31;6300216;22;20412;-89
2023/03/20 04:49:00;;;;;;;21.38;14.57;;;;;;;4.98;100.00;101710.47;6301038;22;20029;-89
2023/03/20 04:51:27;;;;;;;20.08;15.05;;;;;;;4.97;100.00;101709.59;6300858;22;20057;-90
2023/03/20 04:53:52;;;;;;;22.58;14.63;;;;;;;4.91;100.00;101708.81;6299631;22;20056;-89
2023/03/20 04:56:17;;;;;;;25.80;16.13;;;;;;;4.91;100.00;101698.25;6295592;22;20002;-89
2023/03/20 04:58:43;;;;;;;23.60;15.85;;;;;;;4.90;100.00;101694.75;6300698;22;20007;-88
2023/03/20 05:01:08;;;;;;;20.52;15.30;;;;;;;4.98;100.00;101698.16;6301730;22;20003;-90
2023/03/20 05:03:34;;;;;;;22.80;15.40;;;;;;;4.95;100.00;101687.63;6302771;22;20021;-88
2023/03/20 05:05:59;;;;;;;23.40;16.40;;;;;;;5.04;100.00;101691.91;6300105;22;20082;-88
2023/03/20 05:08:25;;;;;;;21.15;14.10;;;;;;;4.97;100.00;101683.22;6295822;22;20293;-90
2023/03/20 05:10:50;;;;;;;24.98;16.15;;;;;;;5.07;100.00;101697.16;6313333;22;20018;-88
2023/03/20 05:13:16;;;;;;;21.92;15.23;;;;;;;5.10;100.00;101698.84;6324225;22;20002;-89
2023/03/20 05:15:42;;;;;;;23.13;14.85;;;;;;;5.08;100.00;101706.78;6327291;22;19995;-90
2023/03/20 05:18:07;;;;;;;21.88;15.25;;;;;;;5.12;100.00;101705.00;6328051;22;19995;-89
2023/03/20 05:20:32;;;;;;;20.70;15.15;;;;;;;5.11;100.00;101705.88;6324302;22;20003;-90
2023/03/20 05:22:58;;;;;;;22.35;14.48;;;;;;;5.14;100.00;101701.44;6327263;22;20011;-90
2023/03/20 05:25:23;;;;;;;20.13;14.15;;;;;;;5.14;100.00;101695.28;6316828;22;20483;-90
2023/03/20 05:27:48;;;;;;;20.92;14.73;;;;;;;5.18;100.00;101696.97;6314566;22;20003;-90
2023/03/20 05:30:14;;;;;;;22.92;14.25;;;;;;;5.14;100.00;101682.97;6315682;22;19991;-90
2023/03/20 05:32:40;;;;;;;21.98;14.10;;;;;;;5.19;100.00;101696.09;6318849;22;19995;-91
2023/03/20 05:35:06;;;;;;;19.63;14.18;;;;;;;5.19;100.00;101696.97;6323396;22;20007;-91
2023/03/20 05:37:32;;;;;;;21.67;14.57;;;;;;;5.22;100.00;101694.28;6310224;22;20010;-90
2023/03/20 05:39:57;;;;;;;21.52;14.63;;;;;;;5.22;100.00;101701.31;6305814;22;20332;-91
2023/03/20 05:42:22;;;;;;;20.08;14.25;;;;;;;5.25;100.00;101709.19;6324661;22;20050;-89
2023/03/20 05:44:48;;;;;;;21.50;14.15;;;;;;;5.25;100.00;101699.50;6333614;22;20027;-91
2023/03/20 05:47:13;;;;;;;20.83;13.48;;;;;;;5.27;100.00;101695.94;6334464;22;19995;-89
2023/03/20 05:49:38;;;;;;;19.20;14.40;;;;;;;5.27;100.00;101696.84;6332898;22;19992;-89
2023/03/20 05:52:03;;;;;;;19.50;14.10;;;;;;;5.24;100.00;101694.25;6332561;22;19992;-89
2023/03/20 05:54:29;;;;;;;22.50;15.15;;;;;;;5.27;100.00;101696.84;6330879;22;19991;-90
2023/03/20 05:56:54;;;;;;;20.30;13.90;;;;;;;5.23;100.00;101697.78;6324825;22;20485;-90
2023/03/20 05:59:20;;;;;;;22.10;15.50;;;;;;;5.30;100.00;101699.41;6306053;22;20011;-91
2023/03/20 06:01:45;;;;;;;21.20;13.90;;;;;;;5.28;100.00;101709.16;6307759;22;19999;-90
2023/03/20 06:04:11;;;;;;;20.35;13.85;;;;;;;5.33;100.00;101717.00;6314932;22;20014;-90
2023/03/20 06:06:36;;;;;;;24.58;14.05;;;;;;;5.38;100.00;101723.06;6318839;22;20029;-91
2023/03/20 06:09:03;;;;;;;23.90;14.93;;;;;;;5.37;100.00;101727.47;6318009;22;20010;-90
2023/03/20 06:11:28;;;;;;;20.95;14.07;;;;;;;5.43;100.00;101729.16;6317661;22;20003;-91
2023/03/20 06:13:54;;;;;;;17.05;12.52;;;;;;;5.38;100.00;101718.66;6317589;22;19999;-88
2023/03/20 06:16:20;;;;;;;21.15;13.20;;;;;;;5.44;100.00;101721.22;6315793;22;20003;-89
2023/03/20 06:18:45;;;;;;;16.92;11.75;;;;;;;5.46;100.00;101734.38;6329141;22;19999;-92
2023/03/20 06:21:11;;;;;;;20.83;14.40;;;;;;;5.47;100.00;101731.72;6331413;22;21054;-88
2023/03/20 06:23:37;;;;;;;21.58;13.05;;;;;;;5.49;100.00;101731.69;6330365;22;20058;-86
2023/03/20 06:26:03;;;;;;;18.30;13.10;;;;;;;5.48;100.00;101722.91;6331292;22;19991;-87
2023/03/20 06:28:28;;;;;;;19.38;12.63;;;;;;;5.54;100.00;101734.28;6331793;22;20077;-89
2023/03/20 06:30:54;;;;;;;23.05;14.13;;;;;;;5.55;100.00;101734.22;6332527;22;20014;-91
2023/03/20 06:33:19;;;;;;;19.45;13.10;;;;;;;5.56;100.00;101743.03;6324716;22;20026;-88
2023/03/20 06:35:45;;;;;;;20.23;12.77;;;;;;;5.58;100.00;101736.84;6317378;22;20006;-88
2023/03/20 06:38:11;;;;;;;16.85;12.73;;;;;;;5.53;100.00;101727.25;6316801;22;20003;-86
2023/03/20 06:40:37;;;;;;;19.20;13.38;;;;;;;5.56;100.00;101727.19;6316378;22;20047;-87
2023/03/20 06:43:06;;;;;;;20.58;13.07;;;;;;;5.67;100.00;101749.03;6316298;22;20037;-86
2023/03/20 06:45:31;;;;;;;20.15;13.00;;;;;;;5.67;100.00;101733.16;6315209;22;20003;-87
2023/03/20 06:47:57;;;;;;;19.40;12.80;;;;;;;5.72;100.00;101728.69;6315245;22;20022;-89
2023/03/20 06:50:23;;;;;;;18.65;12.63;;;;;;;5.73;100.00;101743.66;6314051;22;20007;-87
2023/03/20 06:52:48;;;;;;;17.60;11.90;;;;;;;5.78;100.00;101756.78;6311843;22;20086;-87
2023/03/20 06:55:13;;;;;;;20.00;12.32;;;;;;;5.74;100.00;101759.47;6313508;22;20011;-90
2023/03/20 06:57:39;;;;;;;17.92;11.50;;;;;;;5.85;100.00;101763.69;6311737;22;20332;-88
2023/03/20 07:00:05;;;;;;;19.90;11.02;;;;;;;5.85;100.00;101768.97;6312378;22;19999;-89
2023/03/20 07:02:31;;;;;;;19.75;12.20;;;;;;;5.88;100.00;101782.13;6312066;22;20011;-88
2023/03/20 07:04:56;;;;;;;19.00;11.45;;;;;;;5.87;100.00;101783.91;6313431;22;20074;-88
2023/03/20 07:07:22;;;;;;;18.58;12.45;;;;;;;5.87;100.00;101772.47;6313542;22;20007;-87
2023/03/20 07:09:47;;;;;;;20.48;13.30;;;;;;;5.95;100.00;101779.41;6313796;22;20009;-87
2023/03/20 07:12:14;;;;;;;17.98;12.55;;;;;;;5.97;100.00;101782.00;6310914;22;20021;-89
2023/03/20 07:14:41;;;;;;;20.27;12.20;;;;;;;5.99;100.00;101782.88;6309868;22;20444;-89
2023/03/20 07:17:08;;;;;;;19.50;12.07;;;;;;;5.94;100.00;101772.38;6309783;22;20014;-88
2023/03/20 07:19:35;;;;;;;19.45;11.50;;;;;;;5.98;100.00;101771.44;6309582;22;20159;-89
2023/03/20 07:22:05;;;;;;;18.88;11.82;;;;;;;6.05;100.00;101781.88;6307453;22;20145;-88
2023/03/20 07:24:30;;;;;;;17.77;11.20;;;;;;;6.09;100.00;101787.09;6307790;22;20011;-88
2023/03/20 07:26:56;;;;;;;17.88;11.55;;;;;;;6.09;100.00;101786.22;6310111;22;20007;-87
2023/03/20 07:29:21;;;;;;;18.58;11.00;;;;;;;6.14;100.00;101790.53;6309971;22;20473;-89
2023/03/20 07:31:47;;;;;;;18.98;12.55;;;;;;;6.27;100.00;101796.50;6312515;22;20011;-87
2023/03/20 07:34:12;;;;;;;21.20;11.90;;;;;;;6.35;100.00;101796.34;6311816;22;20007;-87
2023/03/20 07:36:38;;;;;;;17.65;11.05;;;;;;;6.44;100.00;101794.41;6310142;22;20003;-87
2023/03/20 07:39:04;;;;;;;16.45;10.70;;;;;;;6.48;99.51;101798.75;6312845;22;20011;-87
2023/03/20 07:41:30;;;;;;;17.95;10.52;;;;;;;6.54;98.93;101796.88;6311186;22;20008;-87
2023/03/20 07:43:55;;;;;;;22.13;11.00;;;;;;;6.56;98.57;101790.63;6310427;22;20009;-88
2023/03/20 07:46:20;;;;;;;17.10;10.77;;;;;;;6.67;98.68;101793.09;6307758;22;20031;-88
2023/03/20 07:48:46;;;;;;;19.60;10.50;;;;;;;6.73;97.38;101799.16;6310391;22;20027;-89
2023/03/20 07:51:11;;;;;;;19.35;10.65;;;;;;;6.68;97.22;101779.81;6310994;22;20364;-87
2023/03/20 07:53:36;;;;;;;20.98;10.82;;;;;;;6.72;96.86;101785.94;6311551;22;20525;-88
2023/03/20 07:56:02;;;;;;;17.45;10.02;;;;;;;6.72;96.19;101784.16;6310855;22;20017;-88
2023/03/20 07:58:27;;;;;;;21.25;10.63;;;;;;;6.73;96.41;101798.28;6311590;22;20010;-88
2023/03/20 08:00:55;;;;;;;16.15;10.18;;;;;;;6.73;96.11;101800.94;6309828;22;20070;-88
2023/03/20 08:03:20;;;;;;;18.75;10.02;;;;;;;6.70;95.20;101800.97;6309764;22;20007;-88
2023/03/20 08:05:46;;;;;;;19.20;9.75;;;;;;;6.67;95.88;101796.59;6312029;22;20077;-87
2023/03/20 08:08:11;;;;;;;20.17;10.52;;;;;;;6.67;95.68;101793.97;6327790;22;20017;-86
2023/03/20 08:10:36;;;;;;;19.20;9.95;;;;;;;6.70;95.49;101803.63;6323675;22;20384;-86
2023/03/20 08:13:02;;;;;;;13.88;8.82;;;;;;;6.74;94.77;101805.31;6326312;22;19991;-86
2023/03/20 08:15:29;;;;;;;17.08;9.73;;;;;;;6.78;95.14;101795.53;6317401;22;20060;-87
2023/03/20 08:17:57;;;;;;;17.85;9.80;;;;;;;6.79;95.26;101791.97;6316870;22;20003;-88
2023/03/20 08:20:23;;;;;;;17.27;9.95;;;;;;;6.84;94.57;101798.91;6314536;22;20891;-87
2023/03/20 08:22:49;;;;;;;15.25;9.30;;;;;;;6.84;94.49;101806.84;6310096;22;20007;-87
2023/03/20 08:25:15;;;;;;;14.75;9.35;;;;;;;6.88;94.58;101799.72;6302978;22;20000;-87
2023/03/20 08:27:40;;;;;;;16.25;9.18;;;;;;;6.87;94.79;101800.66;6305746;22;20061;-87
2023/03/20 08:30:07;;;;;;;17.10;9.45;;;;;;;6.82;94.61;101800.75;6306764;22;19999;-86
2023/03/20 08:32:33;;;;;;;17.08;9.00;;;;;;;6.83;95.02;101799.81;6302660;22;20007;-87
2023/03/20 08:34:58;;;;;;;15.50;8.85;;;;;;;6.80;95.54;101799.88;6298084;22;20467;-87
2023/03/20 08:37:23;;;;;;;16.48;9.27;;;;;;;6.82;95.26;101798.09;6302461;22;20003;-85
2023/03/20 08:39:49;;;;;;;22.40;10.40;;;;;;;6.80;95.44;101789.28;6299184;22;20003;-85
2023/03/20 08:42:14;;;;;;;17.25;9.05;;;;;;;6.88;94.98;101797.94;6295681;22;20552;-86
2023/03/20 08:44:39;;;;;;;17.67;8.90;;;;;;;6.92;94.31;101796.13;6300481;22;20148;-85
2023/03/20 08:47:06;;;;;;;15.35;7.75;;;;;;;6.91;94.30;101783.81;6325844;22;19993;-86
2023/03/20 08:49:32;;;;;;;13.88;8.30;;;;;;;7.06;94.28;101801.97;6326735;22;20026;-86
2023/03/20 08:51:58;;;;;;;17.60;8.25;;;;;;;7.16;92.73;101805.34;6327851;22;19991;-86
2023/03/20 08:54:24;;;;;;;14.45;7.57;;;;;;;7.24;92.23;101800.75;6323988;22;20003;-87
2023/03/20 08:56:50;;;;;;;16.35;7.65;;;;;;;7.26;91.32;101793.63;6322708;22;19999;-86
2023/03/20 08:59:15;;;;;;;18.80;8.70;;;;;;;7.31;91.34;101791.75;6323394;22;20506;-85
2023/03/20 09:01:41;;;;;;;13.07;7.55;;;;;;;7.43;90.91;101806.50;6312046;22;19999;-85
2023/03/20 09:04:06;;;;;;;17.33;7.60;;;;;;;7.40;89.77;101788.03;6304601;22;20474;-85
2023/03/20 09:06:35;;;;;;;15.95;7.40;;;;;;;7.46;90.02;101802.00;6303300;22;20007;-86
2023/03/20 09:09:01;;;;;;;15.32;7.55;;;;;;;7.54;89.83;101793.88;6303305;22;20010;-86
2023/03/20 09:11:26;;;;;;;12.18;7.25;;;;;;;7.60;89.62;101788.44;6302008;22;20003;-86
2023/03/20 09:13:51;;;;;;;15.15;6.93;;;;;;;7.57;88.49;101793.81;6302251;22;20231;-85
2023/03/20 09:16:17;;;;;;;13.77;6.78;;;;;;;7.51;89.28;101787.78;6305323;22;20416;-87
2023/03/20 09:18:42;;;;;;;13.07;7.20;;;;;;;7.45;88.21;101807.34;6304203;22;20317;-87
2023/03/20 09:21:07;;;;;;;12.43;6.50;;;;;;;7.30;88.58;101799.72;6302720;22;20014;-86
2023/03/20 09:23:33;;;;;;;14.70;7.22;;;;;;;7.16;89.12;101802.69;6303482;22;20035;-86
2023/03/20 09:25:59;;;;;;;11.90;6.72;;;;;;;7.10;90.58;101818.69;6316059;22;20003;-82
2023/03/20 09:28:24;;;;;;;12.52;7.45;;;;;;;6.91;93.92;101812.91;6318397;22;20023;-82
2023/03/20 09:30:55;;;;;;;17.08;8.57;;;;;;;6.69;97.36;101807.19;6317437;22;19999;-85
2023/03/20 09:33:20;;;;;;;15.73;8.25;;;;;;;6.56;100.00;101816.22;6317977;22;20401;-84
2023/03/20 09:35:46;;;;;;;14.48;8.70;;;;;;;6.33;100.00;101824.59;6319983;22;20007;-84
2023/03/20 09:38:12;;;;;;;17.55;8.65;;;;;;;6.10;100.00;101827.59;6323900;22;20007;-85
2023/03/20 09:40:58;;;;;;;19.20;9.70;;;;;;;5.90;100.00;101823.50;6322395;22;20062;-89
2023/03/20 09:43:49;;;;;;;16.45;8.38;;;;;;;5.69;100.00;101816.78;6318443;22;19995;-87
2023/03/20 09:46:17;;;;;;;13.10;8.10;;;;;;;5.68;100.00;101822.06;6321131;22;20059;-89
2023/03/20 09:48:55;;;;;;;19.65;8.98;;;;;;;5.65;100.00;101822.16;6308003;22;20010;-88
2023/03/20 09:51:26;;;;;;;18.45;9.50;;;;;;;5.66;100.00;101818.59;6304643;22;20006;-88
2023/03/20 09:54:00;;;;;;;18.35;10.13;;;;;;;5.72;100.00;101816.72;6305899;22;20007;-89
2023/03/20 09:56:30;;;;;;;18.77;9.82;;;;;;;5.79;100.00;101811.34;6302620;22;20022;-88
2023/03/20 09:58:58;;;;;;;19.10;10.45;;;;;;;5.84;100.00;101814.78;6308420;22;20081;-90
2023/03/20 10:01:30;;;;;;;15.73;10.18;;;;;;;5.91;100.00;101816.44;6308660;22;20023;-89
2023/03/20 10:04:02;;;;;;;16.70;9.50;;;;;;;5.95;100.00;101826.09;6312205;22;20013;-90
2023/03/20 10:06:27;;;;;;;19.13;9.18;;;;;;;5.94;100.00;101819.09;6311624;22;20005;-88
2023/03/20 10:08:54;;;;;;;22.48;8.93;;;;;;;5.95;100.00;101812.91;6310383;22;20077;-89
2023/03/20 10:11:49;;;;;;;18.38;9.20;;;;;;;5.94;100.00;101809.38;6311470;22;19999;-89
2023/03/20 10:14:38;;;;;;;19.05;10.13;;;;;;;5.90;100.00;101804.16;6308736;22;20013;-89
2023/03/20 10:17:15;;;;;;;17.05;10.50;;;;;;;5.99;100.00;101804.88;6308636;22;20003;-89
2023/03/20 10:19:55;;;;;;;18.88;9.75;;;;;;;6.01;100.00;101807.50;6307919;22;20023;-89
2023/03/20 10:22:25;;;;;;;22.15;10.55;;;;;;;5.94;100.00;101782.97;6311009;22;20100;-90
2023/03/20 10:25:09;;;;;;;19.80;10.52;;;;;;;6.05;100.00;101797.75;6311367;22;20018;-91
2023/03/20 10:27:47;;;;;;;18.40;11.45;;;;;;;6.02;100.00;101798.69;6311776;22;20093;-92
2023/03/20 10:30:30;;;;;;;20.55;10.65;;;;;;;6.10;100.00;101801.19;6311035;22;20003;-91
2023/03/20 10:33:16;;;;;;;17.92;11.32;;;;;;;6.11;100.00;101800.31;6319506;22;19995;-92
2023/03/20 10:36:06;;;;;;;23.50;12.57;;;;;;;6.24;100.00;101793.91;6328165;22;19995;-92
2023/03/20 10:38:39;;;;;;;16.92;11.73;;;;;;;6.29;100.00;101785.88;6331804;22;19999;-91
2023/03/20 10:41:12;;;;;;;20.48;11.15;;;;;;;6.49;100.00;101783.75;6332138;22;19991;-93
2023/03/20 10:43:41;;;;;;;17.10;10.10;;;;;;;6.48;100.00;101772.28;6332567;22;20006;-93
2023/03/20 10:46:12;;;;;;;18.50;10.38;;;;;;;6.65;100.00;101781.69;6331230;22;20026;-92
2023/03/20 10:48:58;;;;;;;18.77;9.70;;;;;;;6.63;100.00;101772.88;6322608;22;20031;-93
2023/03/20 10:51:50;;;;;;;17.27;10.82;;;;;;;6.64;100.00;101778.13;6316114;22;20035;-92
2023/03/20 10:54:36;;;;;;;19.63;9.82;;;;;;;6.71;100.00;101782.41;6316384;22;19999;-91
2023/03/20 10:57:04;;;;;;;18.48;10.15;;;;;;;6.84;100.00;101777.75;6315339;22;19999;-91
2023/03/20 10:59:40;;;;;;;16.58;9.95;;;;;;;6.93;100.00;101777.56;6317150;22;20011;-91
2023/03/20 11:02:11;;;;;;;13.93;8.27;;;;;;;7.02;100.00;101783.56;6321504;22;20057;-89
2023/03/20 11:04:37;;;;;;;17.27;9.60;;;;;;;7.01;100.00;101777.41;6317868;22;20302;-89
2023/03/20 11:07:24;;;;;;;16.17;8.77;;;;;;;7.07;100.00;101797.59;6315185;22;20014;-90
2023/03/20 11:10:12;;;;;;;14.90;8.55;;;;;;;6.97;100.00;101791.59;6314772;22;20010;-91
2023/03/20 11:12:41;;;;;;;14.50;8.68;;;;;;;6.97;100.00;101779.22;6310989;22;20023;-89
2023/03/20 11:15:26;;;;;;;14.93;8.68;;;;;;;6.98;100.00;101769.50;6308754;22;20015;-89
2023/03/20 11:18:03;;;;;;;14.65;7.90;;;;;;;7.07;100.00;101756.09;6321784;22;20021;-89
2023/03/20 11:20:38;;;;;;;16.65;8.60;;;;;;;7.09;100.00;101753.41;6328982;22;20342;-87
2023/03/20 11:23:09;;;;;;;15.07;7.60;;;;;;;7.04;100.00;101758.81;6331290;22;20001;-89